createdAt,value
2022-10-22T00:01:13.875Z,3.20
2022-10-22T00:03:42.124Z,2.67
2022-10-22T00:06:10.320Z,3.40
2022-10-22T00:08:38.639Z,2.83
2022-10-22T00:11:11.897Z,3.40
2022-10-22T00:13:41.720Z,3.70
2022-10-22T00:16:10.772Z,4.00
2022-10-22T00:18:39.760Z,3.70
2022-10-22T00:21:08.996Z,3.50
2022-10-22T00:23:37.035Z,4.47
2022-10-22T00:26:05.372Z,3.90
2022-10-22T00:28:33.394Z,2.50
2022-10-22T00:31:03.426Z,3.40
2022-10-22T00:33:31.758Z,3.20
2022-10-22T00:36:00.557Z,3.80
2022-10-22T00:38:31.044Z,3.93
2022-10-22T00:43:33.275Z,2.50
2022-10-22T00:46:03.664Z,2.93
2022-10-22T00:48:34.648Z,3.47
2022-10-22T00:51:05.838Z,2.67
2022-10-22T00:53:39.005Z,3.83
2022-10-22T00:56:08.100Z,2.73
2022-10-22T00:58:38.591Z,2.40
2022-10-22T01:01:16.427Z,2.57
2022-10-22T01:03:44.550Z,2.93
2022-10-22T01:06:18.305Z,2.07
2022-10-22T01:08:53.285Z,1.60
2022-10-22T01:11:24.954Z,2.40
2022-10-22T01:14:01.697Z,2.57
2022-10-22T01:16:36.066Z,2.50
2022-10-22T01:19:20.158Z,2.30
2022-10-22T01:21:53.243Z,2.20
2022-10-22T01:24:36.197Z,2.07
2022-10-22T01:27:13.904Z,1.83
2022-10-22T01:29:46.174Z,2.17
2022-10-22T01:32:17.981Z,2.17
2022-10-22T01:34:50.203Z,2.30
2022-10-22T01:37:19.367Z,2.23
2022-10-22T01:39:48.367Z,1.50
2022-10-22T01:42:16.542Z,1.73
2022-10-22T01:44:48.997Z,1.53
2022-10-22T01:47:22.300Z,2.40
2022-10-22T01:50:12.403Z,2.50
2022-10-22T01:52:59.303Z,2.23
2022-10-22T01:55:30.974Z,3.10
2022-10-22T01:58:08.373Z,2.20
2022-10-22T02:00:41.463Z,2.50
2022-10-22T02:03:18.591Z,2.53
2022-10-22T02:05:51.595Z,3.50
2022-10-22T02:08:23.039Z,2.93
2022-10-22T02:10:53.292Z,2.30
2022-10-22T02:13:26.495Z,2.60
2022-10-22T02:15:58.079Z,2.30
2022-10-22T02:18:30.178Z,2.77
2022-10-22T02:20:58.901Z,2.60
2022-10-22T02:23:27.932Z,2.03
2022-10-22T02:26:02.918Z,1.60
2022-10-22T02:28:34.783Z,1.70
2022-10-22T02:31:13.785Z,1.63
2022-10-22T02:33:44.719Z,3.60
2022-10-22T02:36:13.234Z,1.57
2022-10-22T02:38:46.181Z,1.87
2022-10-22T02:41:15.801Z,1.70
2022-10-22T02:43:45.935Z,1.57
2022-10-22T02:46:15.568Z,1.23
2022-10-22T02:48:43.730Z,1.73
2022-10-22T02:51:12.990Z,1.73
2022-10-22T02:53:41.298Z,1.70
2022-10-22T02:56:09.945Z,1.60
2022-10-22T02:58:38.676Z,1.70
2022-10-22T03:01:08.149Z,1.80
2022-10-22T03:03:38.657Z,1.53
2022-10-22T03:06:07.272Z,1.40
2022-10-22T03:08:36.300Z,1.70
2022-10-22T03:11:04.441Z,2.00
2022-10-22T03:13:32.584Z,1.13
2022-10-22T03:16:00.764Z,1.53
2022-10-22T03:18:29.296Z,1.70
2022-10-22T03:21:09.770Z,1.70
2022-10-22T03:23:39.030Z,1.50
2022-10-22T03:26:07.633Z,1.37
2022-10-22T03:28:35.956Z,1.57
2022-10-22T03:31:04.258Z,1.77
2022-10-22T03:33:32.343Z,1.40
2022-10-22T03:36:00.649Z,3.10
2022-10-22T03:38:30.447Z,1.20
2022-10-22T03:40:58.942Z,0.80
2022-10-22T03:43:27.231Z,1.40
2022-10-22T03:45:55.677Z,1.57
2022-10-22T03:48:23.998Z,1.27
2022-10-22T03:50:52.185Z,1.30
2022-10-22T03:53:20.650Z,1.43
2022-10-22T03:55:50.264Z,1.50
2022-10-22T03:58:18.728Z,1.50
2022-10-22T04:00:46.914Z,1.47
2022-10-22T04:03:15.215Z,1.50
2022-10-22T04:05:43.342Z,2.10
2022-10-22T04:08:11.737Z,2.60
2022-10-22T04:10:41.576Z,1.87
2022-10-22T04:13:11.441Z,2.23
2022-10-22T04:15:40.469Z,1.93
2022-10-22T04:18:08.980Z,1.83
2022-10-22T04:20:38.972Z,1.80
2022-10-22T04:23:08.174Z,1.20
2022-10-22T04:25:36.583Z,1.30
2022-10-22T04:28:04.951Z,1.63
2022-10-22T04:30:36.307Z,1.30
2022-10-22T04:33:05.273Z,1.90
2022-10-22T04:35:33.478Z,1.17
2022-10-22T04:38:01.665Z,1.20
2022-10-22T04:40:30.412Z,1.07
2022-10-22T04:42:58.878Z,1.00
2022-10-22T04:45:27.158Z,0.77
2022-10-22T04:47:57.071Z,0.80
2022-10-22T04:50:25.467Z,0.63
2022-10-22T04:52:54.078Z,0.53
2022-10-22T04:55:22.378Z,2.70
2022-10-22T04:57:50.550Z,2.03
2022-10-22T05:00:22.583Z,1.40
2022-10-22T05:02:51.644Z,1.10
2022-10-22T05:05:21.694Z,0.80
2022-10-22T05:07:51.248Z,0.70
2022-10-22T05:10:19.555Z,0.60
2022-10-22T05:12:47.919Z,0.60
2022-10-22T05:15:16.194Z,0.50
2022-10-22T05:17:44.344Z,0.50
2022-10-22T05:20:12.873Z,0.40
2022-10-22T05:22:42.431Z,0.53
2022-10-22T05:25:12.805Z,0.80
2022-10-22T05:27:41.331Z,0.53
2022-10-22T05:30:10.258Z,0.80
2022-10-22T05:32:38.969Z,0.93
2022-10-22T05:35:07.841Z,0.60
2022-10-22T05:37:36.698Z,0.97
2022-10-22T05:40:19.304Z,0.90
2022-10-22T05:42:50.124Z,0.70
2022-10-22T05:45:18.294Z,0.80
2022-10-22T05:47:46.291Z,0.83
2022-10-22T05:50:14.699Z,0.77
2022-10-22T05:52:43.145Z,1.03
2022-10-22T05:55:13.481Z,0.60
2022-10-22T05:57:41.714Z,0.80
2022-10-22T06:00:14.161Z,0.87
2022-10-22T06:02:44.785Z,1.43
2022-10-22T06:05:12.851Z,1.90
2022-10-22T06:07:41.259Z,1.07
2022-10-22T06:10:14.616Z,0.97
2022-10-22T06:12:42.908Z,0.90
2022-10-22T06:15:12.635Z,1.00
2022-10-22T06:17:40.768Z,0.80
2022-10-22T06:20:11.020Z,1.30
2022-10-22T06:22:39.430Z,1.40
2022-10-22T06:25:08.436Z,1.13
2022-10-22T06:27:38.148Z,1.13
2022-10-22T06:30:07.397Z,1.40
2022-10-22T06:32:35.589Z,1.97
2022-10-22T06:35:03.835Z,2.03
2022-10-22T06:37:32.174Z,1.60
2022-10-22T06:40:00.333Z,1.50
2022-10-22T06:42:29.279Z,1.07
2022-10-22T06:44:58.873Z,1.33
2022-10-22T06:47:27.075Z,1.27
2022-10-22T06:49:55.129Z,1.07
2022-10-22T06:52:23.984Z,1.47
2022-10-22T06:54:52.259Z,1.10
2022-10-22T06:57:20.257Z,1.40
2022-10-22T06:59:48.541Z,1.43
2022-10-22T07:02:18.065Z,2.30
2022-10-22T07:04:46.323Z,3.70
2022-10-22T07:07:15.189Z,4.07
2022-10-22T07:09:45.669Z,4.40
2022-10-22T07:12:14.267Z,5.17
2022-10-22T07:14:42.493Z,2.50
2022-10-22T07:17:10.622Z,2.20
2022-10-22T07:19:40.450Z,3.67
2022-10-22T07:22:08.605Z,2.47
2022-10-22T07:24:36.895Z,3.57
2022-10-22T07:27:07.038Z,3.90
2022-10-22T07:29:37.646Z,2.33
2022-10-22T07:32:06.291Z,2.10
2022-10-22T07:34:34.374Z,1.63
2022-10-22T07:37:04.117Z,2.50
2022-10-22T07:39:33.134Z,2.03
2022-10-22T07:42:01.374Z,2.47
2022-10-22T07:44:29.662Z,3.30
2022-10-22T07:46:57.976Z,3.10
2022-10-22T07:49:26.027Z,3.17
2022-10-22T07:51:54.224Z,2.50
2022-10-22T07:54:23.966Z,2.60
2022-10-22T07:56:52.516Z,2.93
2022-10-22T07:59:20.813Z,2.67
2022-10-22T08:01:48.832Z,2.30
2022-10-22T08:04:16.930Z,3.90
2022-10-22T08:06:47.247Z,4.03
2022-10-22T08:09:16.564Z,3.30
2022-10-22T08:11:47.021Z,3.40
2022-10-22T08:14:15.139Z,2.60
2022-10-22T08:16:43.189Z,2.90
2022-10-22T08:19:11.260Z,2.30
2022-10-22T08:21:39.286Z,2.20
2022-10-22T08:26:41.473Z,1.60
2022-10-22T08:29:10.942Z,1.63
2022-10-22T08:31:39.323Z,2.30
2022-10-22T08:34:08.368Z,1.27
2022-10-22T08:36:36.787Z,1.50
2022-10-22T08:39:04.935Z,1.30
2022-10-22T08:41:38.114Z,2.10
2022-10-22T08:44:22.164Z,2.20
2022-10-22T08:47:20.059Z,1.93
2022-10-22T08:49:50.596Z,1.87
2022-10-22T08:52:20.059Z,2.17
2022-10-22T08:54:52.715Z,2.40
2022-10-22T09:00:03.687Z,2.53
2022-10-22T09:02:39.913Z,2.43
2022-10-22T09:05:19.404Z,2.77
2022-10-22T09:07:50.231Z,2.47
2022-10-22T09:10:20.151Z,2.97
2022-10-22T09:12:48.909Z,3.00
2022-10-22T09:15:19.616Z,3.00
2022-10-22T09:17:56.909Z,2.70
2022-10-22T09:20:29.917Z,3.40
2022-10-22T09:23:06.771Z,3.30
2022-10-22T09:25:37.968Z,3.17
2022-10-22T09:28:07.063Z,3.23
2022-10-22T09:30:39.067Z,3.10
2022-10-22T09:33:14.013Z,4.10
2022-10-22T09:35:48.469Z,5.80
2022-10-22T09:38:19.258Z,2.67
2022-10-22T09:40:50.055Z,2.80
2022-10-22T09:43:18.621Z,3.20
2022-10-22T09:45:49.618Z,2.93
2022-10-22T09:48:27.222Z,2.83
2022-10-22T09:50:59.350Z,1.90
2022-10-22T09:53:28.407Z,2.63
2022-10-22T09:55:58.733Z,2.90
2022-10-22T09:58:27.463Z,2.60
2022-10-22T10:00:58.441Z,2.37
2022-10-22T10:03:28.191Z,3.20
2022-10-22T10:06:04.718Z,3.67
2022-10-22T10:08:35.048Z,2.73
2022-10-22T10:11:07.891Z,2.60
2022-10-22T10:13:44.087Z,2.33
2022-10-22T10:16:30.486Z,2.30
2022-10-22T10:19:18.746Z,2.33
2022-10-22T10:21:52.972Z,2.77
2022-10-22T10:24:25.192Z,3.20
2022-10-22T10:26:56.338Z,3.60
2022-10-22T10:29:38.806Z,3.80
2022-10-22T10:32:23.594Z,3.30
2022-10-22T10:34:56.481Z,3.90
2022-10-22T10:37:27.010Z,4.00
2022-10-22T10:40:17.897Z,2.53
2022-10-22T10:42:53.284Z,2.80
2022-10-22T10:45:26.582Z,3.00
2022-10-22T10:48:11.606Z,2.97
2022-10-22T10:50:52.019Z,3.60
2022-10-22T10:53:25.749Z,3.03
2022-10-22T10:56:00.877Z,2.57
2022-10-22T10:58:35.915Z,3.00
2022-10-22T11:01:14.642Z,5.30
2022-10-22T11:03:56.711Z,2.60
2022-10-22T11:06:25.772Z,2.30
2022-10-22T11:08:59.480Z,2.50
2022-10-22T11:11:33.062Z,3.43
2022-10-22T11:14:05.498Z,2.77
2022-10-22T11:16:36.716Z,3.00
2022-10-22T11:19:10.074Z,3.20
2022-10-22T11:21:42.217Z,2.07
2022-10-22T11:24:17.857Z,2.33
2022-10-22T11:26:48.281Z,18.60
2022-10-22T11:29:20.813Z,6.23
2022-10-22T11:31:50.096Z,3.57
2022-10-22T11:34:33.169Z,3.47
2022-10-22T11:37:02.840Z,6.67
2022-10-22T11:39:34.760Z,2.93
2022-10-22T11:42:05.655Z,2.20
2022-10-22T11:44:47.396Z,1.63
2022-10-22T11:47:20.699Z,2.60
2022-10-22T11:50:00.842Z,2.50
2022-10-22T11:52:40.246Z,2.10
2022-10-22T11:55:33.726Z,1.37
2022-10-22T11:58:02.593Z,1.43
2022-10-22T12:00:42.747Z,1.07
2022-10-22T12:03:18.787Z,1.20
2022-10-22T12:05:48.436Z,1.40
2022-10-22T12:08:37.742Z,1.33
2022-10-22T12:11:24.209Z,1.40
2022-10-22T12:14:05.222Z,1.60
2022-10-22T12:16:55.158Z,1.17
2022-10-22T12:19:31.976Z,1.23
2022-10-22T12:22:10.318Z,1.50
2022-10-22T12:24:40.565Z,1.33
2022-10-22T12:27:22.234Z,1.40
2022-10-22T12:29:55.095Z,1.87
2022-10-22T12:32:23.304Z,2.40
2022-10-22T12:34:53.189Z,1.80
2022-10-22T12:37:22.929Z,2.10
2022-10-22T12:39:50.956Z,2.20
2022-10-22T12:42:19.405Z,1.23
2022-10-22T12:44:47.504Z,1.70
2022-10-22T12:47:17.534Z,1.50
2022-10-22T12:49:49.947Z,1.80
2022-10-22T12:52:21.013Z,1.20
2022-10-22T12:54:52.718Z,1.07
2022-10-22T12:57:21.690Z,1.33
2022-10-22T12:59:51.426Z,2.30
2022-10-22T13:02:23.917Z,3.93
2022-10-22T13:05:16.766Z,30.50
2022-10-22T13:07:48.313Z,69.70
2022-10-22T13:10:21.072Z,34.60
2022-10-22T13:12:53.416Z,2.73
2022-10-22T13:15:30.568Z,3.73
2022-10-22T13:18:03.667Z,1.53
2022-10-22T13:20:32.200Z,0.90
2022-10-22T13:23:03.355Z,0.90
2022-10-22T13:25:34.500Z,0.77
2022-10-22T13:28:05.456Z,0.73
2022-10-22T13:30:34.944Z,1.80
2022-10-22T13:33:04.508Z,1.93
2022-10-22T13:35:34.581Z,1.37
2022-10-22T13:38:03.283Z,0.77
2022-10-22T13:40:32.671Z,1.60
2022-10-22T13:43:00.867Z,1.40
2022-10-22T13:45:29.260Z,1.20
2022-10-22T13:47:57.335Z,1.40
2022-10-22T13:50:25.660Z,1.33
2022-10-22T13:52:55.418Z,1.20
2022-10-22T13:55:25.624Z,2.50
2022-10-22T13:57:56.704Z,2.00
2022-10-22T14:00:25.219Z,2.17
2022-10-22T14:02:56.033Z,1.80
2022-10-22T14:05:24.358Z,1.10
2022-10-22T14:07:52.970Z,1.00
2022-10-22T14:10:23.099Z,1.00
2022-10-22T14:12:53.375Z,1.43
2022-10-22T14:15:25.128Z,1.70
2022-10-22T14:17:55.736Z,0.90
2022-10-22T14:20:26.474Z,1.07
2022-10-22T14:22:55.179Z,0.80
2022-10-22T14:25:24.471Z,1.07
2022-10-22T14:27:52.531Z,1.47
2022-10-22T14:30:22.004Z,5.30
2022-10-22T14:32:51.924Z,1.87
2022-10-22T14:35:22.596Z,3.40
2022-10-22T14:37:50.984Z,4.03
2022-10-22T14:40:21.306Z,6.13
2022-10-22T14:42:50.116Z,3.80
2022-10-22T14:45:21.007Z,3.23
2022-10-22T14:47:49.063Z,3.17
2022-10-22T14:50:19.458Z,3.00
2022-10-22T14:52:47.662Z,2.10
2022-10-22T14:55:17.444Z,2.40
2022-10-22T14:57:45.946Z,1.30
2022-10-22T15:00:16.848Z,1.67
2022-10-22T15:02:45.103Z,1.50
2022-10-22T15:05:13.547Z,1.60
2022-10-22T15:07:43.651Z,1.37
2022-10-22T15:10:12.295Z,2.87
2022-10-22T15:12:40.426Z,1.67
2022-10-22T15:15:09.321Z,1.33
2022-10-22T15:17:37.423Z,1.20
2022-10-22T15:20:06.807Z,1.50
2022-10-22T15:22:36.151Z,1.70
2022-10-22T15:25:08.304Z,2.00
2022-10-22T15:27:36.677Z,1.40
2022-10-22T15:30:05.544Z,2.20
2022-10-22T15:32:34.239Z,1.30
2022-10-22T15:35:02.459Z,1.00
2022-10-22T15:37:31.868Z,1.30
2022-10-22T15:40:00.726Z,17.77
2022-10-22T15:42:30.193Z,8.73
2022-10-22T15:44:59.810Z,4.50
2022-10-22T15:47:29.643Z,3.67
2022-10-22T15:49:59.973Z,2.67
2022-10-22T15:52:28.024Z,2.40
2022-10-22T15:54:56.341Z,5.27
2022-10-22T15:57:24.416Z,33.23
2022-10-22T15:59:53.827Z,8.60
2022-10-22T16:02:21.921Z,18.47
2022-10-22T16:04:50.354Z,12.77
2022-10-22T16:07:21.070Z,33.93
2022-10-22T16:09:52.406Z,31.00
2022-10-22T16:12:20.856Z,47.63
2022-10-22T16:14:51.549Z,36.90
2022-10-22T16:17:21.121Z,25.87
2022-10-22T16:19:49.527Z,15.07
2022-10-22T16:22:17.874Z,12.27
2022-10-22T16:24:46.300Z,5.37
2022-10-22T16:27:14.405Z,4.77
2022-10-22T16:29:42.442Z,6.00
2022-10-22T16:32:10.428Z,7.87
2022-10-22T16:34:39.939Z,5.37
2022-10-22T16:37:10.229Z,3.43
2022-10-22T16:39:38.661Z,3.33
2022-10-22T16:42:06.867Z,3.63
2022-10-22T16:44:35.001Z,5.73
2022-10-22T16:47:03.129Z,5.00
2022-10-22T16:49:31.270Z,3.17
2022-10-22T16:52:01.343Z,2.67
2022-10-22T16:54:29.446Z,2.80
2022-10-22T16:56:57.686Z,10.37
2022-10-22T16:59:25.818Z,5.07
2022-10-22T17:01:54.672Z,3.20
2022-10-22T17:04:23.651Z,6.53
2022-10-22T17:06:52.183Z,4.20
2022-10-22T17:09:23.221Z,5.03
2022-10-22T17:11:51.365Z,3.47
2022-10-22T17:14:19.375Z,3.57
2022-10-22T17:16:48.917Z,4.27
2022-10-22T17:19:17.000Z,5.43
2022-10-22T17:21:44.977Z,4.80
2022-10-22T17:24:13.042Z,3.40
2022-10-22T17:26:43.463Z,3.20
2022-10-22T17:29:11.893Z,3.03
2022-10-22T17:31:41.900Z,2.80
2022-10-22T17:34:12.656Z,2.17
2022-10-22T17:36:41.500Z,1.53
2022-10-22T17:39:10.037Z,1.70
2022-10-22T17:41:38.785Z,1.83
2022-10-22T17:44:10.008Z,2.17
2022-10-22T17:46:38.797Z,2.47
2022-10-22T17:49:09.372Z,7.00
2022-10-22T17:51:38.168Z,65.23
2022-10-22T17:54:09.027Z,31.67
2022-10-22T17:56:40.100Z,33.13
2022-10-22T17:59:10.102Z,199.07
2022-10-22T18:01:43.439Z,153.73
2022-10-22T18:04:12.973Z,28.87
2022-10-22T18:06:41.117Z,6.80
2022-10-22T18:09:17.263Z,5.40
2022-10-22T18:11:46.884Z,2.80
2022-10-22T18:14:16.871Z,3.30
2022-10-22T18:16:45.203Z,2.50
2022-10-22T18:19:16.368Z,3.80
2022-10-22T18:21:44.466Z,4.27
2022-10-22T18:24:12.755Z,3.10
2022-10-22T18:26:40.843Z,3.70
2022-10-22T18:29:08.871Z,2.17
2022-10-22T18:31:38.353Z,2.70
2022-10-22T18:34:06.419Z,2.37
2022-10-22T18:36:34.522Z,2.47
2022-10-22T18:39:03.973Z,2.83
2022-10-22T18:41:33.276Z,2.03
2022-10-22T18:44:02.726Z,1.90
2022-10-22T18:46:31.666Z,2.57
2022-10-22T18:49:01.135Z,1.83
2022-10-22T18:51:31.710Z,1.50
2022-10-22T18:54:11.279Z,1.47
2022-10-22T18:56:46.235Z,1.80
2022-10-22T18:59:20.245Z,1.90
2022-10-22T19:01:48.762Z,1.70
2022-10-22T19:04:18.163Z,2.00
2022-10-22T19:06:46.532Z,2.17
2022-10-22T19:09:16.617Z,3.20
2022-10-22T19:11:45.180Z,2.23
2022-10-22T19:14:14.199Z,2.37
2022-10-22T19:16:42.240Z,1.97
2022-10-22T19:19:10.541Z,1.60
2022-10-22T19:21:39.970Z,1.90
2022-10-22T19:24:08.395Z,2.20
2022-10-22T19:26:36.436Z,1.50
2022-10-22T19:29:05.369Z,1.73
2022-10-22T19:31:34.081Z,1.77
2022-10-22T19:34:02.850Z,2.00
2022-10-22T19:36:32.758Z,2.87
2022-10-22T19:39:02.315Z,2.13
2022-10-22T19:41:32.024Z,1.90
2022-10-22T19:44:01.191Z,2.40
2022-10-22T19:46:30.449Z,5.60
2022-10-22T19:48:58.545Z,5.50
2022-10-22T19:51:29.772Z,2.40
2022-10-22T19:53:59.307Z,2.63
2022-10-22T19:56:29.855Z,3.70
2022-10-22T19:58:57.922Z,3.67
2022-10-22T20:01:26.450Z,3.50
2022-10-22T20:03:55.154Z,3.83
2022-10-22T20:06:23.188Z,4.00
2022-10-22T20:08:55.169Z,2.93
2022-10-22T20:11:26.386Z,3.20
2022-10-22T20:13:56.924Z,3.10
2022-10-22T20:16:28.424Z,3.30
2022-10-22T20:19:00.088Z,3.13
2022-10-22T20:21:28.543Z,5.37
2022-10-22T20:23:58.155Z,6.60
2022-10-22T20:26:28.203Z,5.73
2022-10-22T20:28:59.342Z,6.23
2022-10-22T20:31:29.341Z,3.80
2022-10-22T20:33:58.923Z,4.60
2022-10-22T20:36:28.111Z,4.90
2022-10-22T20:39:00.732Z,4.03
2022-10-22T20:41:28.895Z,3.80
2022-10-22T20:43:58.327Z,4.63
2022-10-22T20:46:29.190Z,4.07
2022-10-22T20:49:00.203Z,4.60
2022-10-22T20:51:28.345Z,4.50
2022-10-22T20:53:56.471Z,4.40
2022-10-22T20:56:25.408Z,4.30
2022-10-22T20:59:04.472Z,3.57
2022-10-22T21:01:35.593Z,3.50
2022-10-22T21:04:03.635Z,3.40
2022-10-22T21:06:31.761Z,3.60
2022-10-22T21:08:59.881Z,3.00
2022-10-22T21:11:27.993Z,3.10
2022-10-22T21:13:56.114Z,2.73
2022-10-22T21:16:24.224Z,1.70
2022-10-22T21:18:53.685Z,2.53
2022-10-22T21:21:21.727Z,2.40
2022-10-22T21:23:50.998Z,2.23
2022-10-22T21:26:19.343Z,2.33
2022-10-22T21:28:47.626Z,1.90
2022-10-22T21:31:21.647Z,1.90
2022-10-22T21:33:50.665Z,2.10
2022-10-22T21:36:22.945Z,1.90
2022-10-22T21:38:51.847Z,1.97
2022-10-22T21:41:21.275Z,1.80
2022-10-22T21:43:49.402Z,2.77
2022-10-22T21:46:18.763Z,2.50
2022-10-22T21:48:47.050Z,3.40
2022-10-22T21:51:17.272Z,3.27
2022-10-22T21:53:47.568Z,3.40
2022-10-22T21:56:17.997Z,2.40
2022-10-22T21:58:46.186Z,2.57
2022-10-22T22:01:15.811Z,2.30
2022-10-22T22:03:44.749Z,2.00
2022-10-22T22:06:13.344Z,1.63
2022-10-22T22:08:42.138Z,1.93
2022-10-22T22:11:13.547Z,1.90
2022-10-22T22:13:41.711Z,1.47
2022-10-22T22:16:11.920Z,1.60
2022-10-22T22:18:41.380Z,1.50
2022-10-22T22:21:11.964Z,1.60
2022-10-22T22:23:41.242Z,1.37
2022-10-22T22:26:11.592Z,1.50
2022-10-22T22:28:39.939Z,1.90
2022-10-22T22:31:14.106Z,1.40
2022-10-22T22:33:42.436Z,1.30
2022-10-22T22:36:10.969Z,1.20
2022-10-22T22:38:39.646Z,1.50
2022-10-22T22:41:07.975Z,1.30
2022-10-22T22:43:37.767Z,1.47
2022-10-22T22:46:07.621Z,1.60
2022-10-22T22:48:36.379Z,1.87
2022-10-22T22:51:04.753Z,1.10
2022-10-22T22:53:35.467Z,1.50
2022-10-22T22:56:07.132Z,1.80
2022-10-22T22:58:36.013Z,1.70
2022-10-22T23:01:14.300Z,1.53
2022-10-22T23:03:43.058Z,1.83
2022-10-22T23:06:11.890Z,1.50
2022-10-22T23:08:40.397Z,1.93
2022-10-22T23:11:11.892Z,1.93
2022-10-22T23:13:40.729Z,1.40
2022-10-22T23:16:10.594Z,1.50
2022-10-22T23:18:40.662Z,1.40
2022-10-22T23:21:19.570Z,1.33
2022-10-22T23:23:50.588Z,1.17
2022-10-22T23:26:20.331Z,1.13
2022-10-22T23:28:48.762Z,1.30
2022-10-22T23:31:18.272Z,1.00
2022-10-22T23:33:48.146Z,1.00
2022-10-22T23:36:16.770Z,1.03
2022-10-22T23:38:44.959Z,1.17
2022-10-22T23:41:13.435Z,1.23
2022-10-22T23:43:41.667Z,1.33
2022-10-22T23:46:12.554Z,1.10
2022-10-22T23:48:41.866Z,0.90
2022-10-22T23:51:13.455Z,0.93
2022-10-22T23:53:42.490Z,0.97
2022-10-22T23:56:12.715Z,1.10
2022-10-22T23:58:41.678Z,1.30
